New Orleans, Louisiana
Traffic Map
Current Weather Conditions
New Orleans, Louisiana
Clear Haze
Clear
21°
Feels Like: 21°
Wind Chill: 21° Ceiling: Unl
Heat Index: 21° Visibility: 5mi
Dew Point: 21° Wind: 3mph
Humidity: 100% Direction: 320° (NW)
Pressure: 29.97in Gusts: 0mph
Raw Report DataKNEW 030253Z AUTO 32003KT 5SM BR CLR 21/21 A2997 RMK AO2 SLP142 T02110211 53025 $
Traffic Incident Summary
Active as of:
Severity:
Category:
InformationThere was an issue retrieving the traffic information for this location. Please try a different location or try again shortly.
Advertisements
Track Severe Weather on mobile